sensor_id;sensor_type;location;lat;lon;timestamp;temperature;humidity
28773;DHT22;15925;51.222;5.678;2023-02-15T00:01:06;2.90;99.90
28773;DHT22;15925;51.222;5.678;2023-02-15T00:03:32;2.80;99.90
28773;DHT22;15925;51.222;5.678;2023-02-15T00:05:58;2.90;99.90
28773;DHT22;15925;51.222;5.678;2023-02-15T00:08:24;2.90;99.90
28773;DHT22;15925;51.222;5.678;2023-02-15T00:10:50;2.90;99.90
28773;DHT22;15925;51.222;5.678;2023-02-15T00:13:15;2.80;99.90
28773;DHT22;15925;51.222;5.678;2023-02-15T00:15:41;2.80;99.90
28773;DHT22;15925;51.222;5.678;2023-02-15T00:18:07;2.80;99.90
28773;DHT22;15925;51.222;5.678;2023-02-15T00:20:32;2.80;99.90
28773;DHT22;15925;51.222;5.678;2023-02-15T00:22:58;2.80;99.90
28773;DHT22;15925;51.222;5.678;2023-02-15T00:25:25;2.80;99.90
28773;DHT22;15925;51.222;5.678;2023-02-15T00:27:50;2.70;99.90
28773;DHT22;15925;51.222;5.678;2023-02-15T00:30:16;2.80;99.90
28773;DHT22;15925;51.222;5.678;2023-02-15T00:32:42;2.80;99.90
28773;DHT22;15925;51.222;5.678;2023-02-15T00:35:07;2.80;99.90
28773;DHT22;15925;51.222;5.678;2023-02-15T00:37:34;2.70;99.90
28773;DHT22;15925;51.222;5.678;2023-02-15T00:40:02;2.70;99.90
28773;DHT22;15925;51.222;5.678;2023-02-15T00:42:29;2.80;99.90
28773;DHT22;15925;51.222;5.678;2023-02-15T00:44:55;2.80;99.90
28773;DHT22;15925;51.222;5.678;2023-02-15T00:47:20;2.80;99.90
28773;DHT22;15925;51.222;5.678;2023-02-15T00:49:46;2.90;99.90
28773;DHT22;15925;51.222;5.678;2023-02-15T00:52:12;2.90;99.90
28773;DHT22;15925;51.222;5.678;2023-02-15T00:54:37;2.90;99.90
28773;DHT22;15925;51.222;5.678;2023-02-15T00:57:04;2.90;99.90
28773;DHT22;15925;51.222;5.678;2023-02-15T00:59:29;2.80;99.90
28773;DHT22;15925;51.222;5.678;2023-02-15T01:01:55;2.80;99.90
28773;DHT22;15925;51.222;5.678;2023-02-15T01:04:21;2.80;99.90
28773;DHT22;15925;51.222;5.678;2023-02-15T01:06:46;2.80;99.90
28773;DHT22;15925;51.222;5.678;2023-02-15T01:09:12;2.80;99.90
28773;DHT22;15925;51.222;5.678;2023-02-15T01:11:39;2.70;99.90
28773;DHT22;15925;51.222;5.678;2023-02-15T01:14:04;2.70;99.90
28773;DHT22;15925;51.222;5.678;2023-02-15T01:16:32;2.70;99.90
28773;DHT22;15925;51.222;5.678;2023-02-15T01:18:58;2.70;99.90
28773;DHT22;15925;51.222;5.678;2023-02-15T01:21:24;2.70;99.90
28773;DHT22;15925;51.222;5.678;2023-02-15T01:23:50;2.70;99.90
28773;DHT22;15925;51.222;5.678;2023-02-15T01:26:16;2.70;99.90
28773;DHT22;15925;51.222;5.678;2023-02-15T01:28:43;2.70;99.90
28773;DHT22;15925;51.222;5.678;2023-02-15T01:31:10;2.70;99.90
28773;DHT22;15925;51.222;5.678;2023-02-15T01:33:36;2.70;99.90
28773;DHT22;15925;51.222;5.678;2023-02-15T01:36:02;2.90;99.90
28773;DHT22;15925;51.222;5.678;2023-02-15T01:38:28;2.80;99.90
28773;DHT22;15925;51.222;5.678;2023-02-15T01:40:54;2.70;99.90
28773;DHT22;15925;51.222;5.678;2023-02-15T01:43:44;2.80;99.90
28773;DHT22;15925;51.222;5.678;2023-02-15T01:46:10;2.80;99.90
28773;DHT22;15925;51.222;5.678;2023-02-15T01:48:37;2.80;99.90
28773;DHT22;15925;51.222;5.678;2023-02-15T01:51:06;2.80;99.90
28773;DHT22;15925;51.222;5.678;2023-02-15T01:53:33;2.70;99.90
28773;DHT22;15925;51.222;5.678;2023-02-15T01:56:09;2.60;99.90
28773;DHT22;15925;51.222;5.678;2023-02-15T01:58:38;2.50;99.90
28773;DHT22;15925;51.222;5.678;2023-02-15T02:01:04;2.40;99.90
28773;DHT22;15925;51.222;5.678;2023-02-15T02:03:53;2.50;99.90
28773;DHT22;15925;51.222;5.678;2023-02-15T02:06:22;2.40;99.90
28773;DHT22;15925;51.222;5.678;2023-02-15T02:08:48;2.40;99.90
28773;DHT22;15925;51.222;5.678;2023-02-15T02:11:14;2.40;99.90
28773;DHT22;15925;51.222;5.678;2023-02-15T02:13:40;2.40;99.90
28773;DHT22;15925;51.222;5.678;2023-02-15T02:18:45;2.40;99.90
28773;DHT22;15925;51.222;5.678;2023-02-15T02:21:22;2.40;99.90
28773;DHT22;15925;51.222;5.678;2023-02-15T02:32:03;2.40;99.90
28773;DHT22;15925;51.222;5.678;2023-02-15T02:40:16;2.30;99.90
28773;DHT22;15925;51.222;5.678;2023-02-15T02:42:48;2.20;99.90
28773;DHT22;15925;51.222;5.678;2023-02-15T02:47:53;2.20;99.90
28773;DHT22;15925;51.222;5.678;2023-02-15T02:50:23;2.20;99.90
28773;DHT22;15925;51.222;5.678;2023-02-15T02:52:50;2.30;99.90
28773;DHT22;15925;51.222;5.678;2023-02-15T02:55:17;2.20;99.90
28773;DHT22;15925;51.222;5.678;2023-02-15T02:57:54;2.30;99.90
28773;DHT22;15925;51.222;5.678;2023-02-15T03:00:21;2.20;99.90
28773;DHT22;15925;51.222;5.678;2023-02-15T03:02:49;2.30;99.90
28773;DHT22;15925;51.222;5.678;2023-02-15T03:05:18;2.20;99.90
28773;DHT22;15925;51.222;5.678;2023-02-15T03:07:47;2.20;99.90
28773;DHT22;15925;51.222;5.678;2023-02-15T03:10:15;2.30;99.90
28773;DHT22;15925;51.222;5.678;2023-02-15T03:12:42;2.40;99.90
28773;DHT22;15925;51.222;5.678;2023-02-15T03:15:12;2.30;99.90
28773;DHT22;15925;51.222;5.678;2023-02-15T03:17:43;2.30;99.90
28773;DHT22;15925;51.222;5.678;2023-02-15T03:20:20;2.20;99.90
28773;DHT22;15925;51.222;5.678;2023-02-15T03:22:51;2.20;99.90
28773;DHT22;15925;51.222;5.678;2023-02-15T03:25:22;2.20;99.90
28773;DHT22;15925;51.222;5.678;2023-02-15T03:27:51;2.30;99.90
28773;DHT22;15925;51.222;5.678;2023-02-15T03:30:20;2.30;99.90
28773;DHT22;15925;51.222;5.678;2023-02-15T03:32:47;2.20;99.90
28773;DHT22;15925;51.222;5.678;2023-02-15T03:35:14;2.20;99.90
28773;DHT22;15925;51.222;5.678;2023-02-15T03:37:41;2.30;99.90
28773;DHT22;15925;51.222;5.678;2023-02-15T03:45:51;2.10;99.90
28773;DHT22;15925;51.222;5.678;2023-02-15T03:48:21;2.10;99.90
28773;DHT22;15925;51.222;5.678;2023-02-15T03:50:48;2.10;99.90
28773;DHT22;15925;51.222;5.678;2023-02-15T03:53:32;2.10;99.90
28773;DHT22;15925;51.222;5.678;2023-02-15T03:55:58;2.10;99.90
28773;DHT22;15925;51.222;5.678;2023-02-15T03:58:24;2.10;99.90
28773;DHT22;15925;51.222;5.678;2023-02-15T04:01:25;2.10;99.90
28773;DHT22;15925;51.222;5.678;2023-02-15T04:04:12;2.10;99.90
28773;DHT22;15925;51.222;5.678;2023-02-15T04:06:40;2.00;99.90
28773;DHT22;15925;51.222;5.678;2023-02-15T04:09:06;2.00;99.90
28773;DHT22;15925;51.222;5.678;2023-02-15T04:11:50;1.90;99.90
28773;DHT22;15925;51.222;5.678;2023-02-15T04:14:15;1.80;99.90
28773;DHT22;15925;51.222;5.678;2023-02-15T04:17:00;1.80;99.90
28773;DHT22;15925;51.222;5.678;2023-02-15T04:19:25;1.90;99.90
28773;DHT22;15925;51.222;5.678;2023-02-15T04:22:09;1.90;99.90
28773;DHT22;15925;51.222;5.678;2023-02-15T04:24:54;1.90;99.90
28773;DHT22;15925;51.222;5.678;2023-02-15T04:27:35;1.70;99.90
28773;DHT22;15925;51.222;5.678;2023-02-15T04:30:01;1.70;99.90
28773;DHT22;15925;51.222;5.678;2023-02-15T04:32:26;1.80;99.90
28773;DHT22;15925;51.222;5.678;2023-02-15T04:34:52;1.80;99.90
28773;DHT22;15925;51.222;5.678;2023-02-15T04:37:18;1.70;99.90
28773;DHT22;15925;51.222;5.678;2023-02-15T04:39:44;1.60;99.90
28773;DHT22;15925;51.222;5.678;2023-02-15T04:42:09;1.60;99.90
28773;DHT22;15925;51.222;5.678;2023-02-15T04:44:35;1.60;99.90
28773;DHT22;15925;51.222;5.678;2023-02-15T04:47:01;1.70;99.90
28773;DHT22;15925;51.222;5.678;2023-02-15T04:49:26;1.70;99.90
28773;DHT22;15925;51.222;5.678;2023-02-15T04:51:52;1.70;99.90
28773;DHT22;15925;51.222;5.678;2023-02-15T04:54:17;1.60;99.90
28773;DHT22;15925;51.222;5.678;2023-02-15T04:56:43;1.60;99.90
28773;DHT22;15925;51.222;5.678;2023-02-15T04:59:12;1.50;99.90
28773;DHT22;15925;51.222;5.678;2023-02-15T05:01:38;1.50;99.90
28773;DHT22;15925;51.222;5.678;2023-02-15T05:04:04;1.50;99.90
28773;DHT22;15925;51.222;5.678;2023-02-15T05:06:29;1.60;99.90
28773;DHT22;15925;51.222;5.678;2023-02-15T05:08:55;1.50;99.90
28773;DHT22;15925;51.222;5.678;2023-02-15T05:11:21;1.50;99.90
28773;DHT22;15925;51.222;5.678;2023-02-15T05:13:46;1.50;99.90
28773;DHT22;15925;51.222;5.678;2023-02-15T05:16:12;1.50;99.90
28773;DHT22;15925;51.222;5.678;2023-02-15T05:18:38;1.50;99.90
28773;DHT22;15925;51.222;5.678;2023-02-15T05:21:04;1.60;99.90
28773;DHT22;15925;51.222;5.678;2023-02-15T05:23:29;1.40;99.90
28773;DHT22;15925;51.222;5.678;2023-02-15T05:25:55;1.50;99.90
28773;DHT22;15925;51.222;5.678;2023-02-15T05:28:39;1.50;99.90
28773;DHT22;15925;51.222;5.678;2023-02-15T05:33:31;1.40;99.90
28773;DHT22;15925;51.222;5.678;2023-02-15T05:35:57;1.40;99.90
28773;DHT22;15925;51.222;5.678;2023-02-15T05:38:22;1.50;99.90
28773;DHT22;15925;51.222;5.678;2023-02-15T05:40:48;1.50;99.90
28773;DHT22;15925;51.222;5.678;2023-02-15T05:43:13;1.50;99.90
28773;DHT22;15925;51.222;5.678;2023-02-15T05:45:39;1.50;99.90
28773;DHT22;15925;51.222;5.678;2023-02-15T05:48:05;1.50;99.90
28773;DHT22;15925;51.222;5.678;2023-02-15T05:50:30;1.50;99.90
28773;DHT22;15925;51.222;5.678;2023-02-15T05:52:58;1.60;99.90
28773;DHT22;15925;51.222;5.678;2023-02-15T05:55:24;1.40;99.90
28773;DHT22;15925;51.222;5.678;2023-02-15T05:57:50;1.40;99.90
28773;DHT22;15925;51.222;5.678;2023-02-15T06:00:15;1.40;99.90
28773;DHT22;15925;51.222;5.678;2023-02-15T06:02:41;1.40;99.90
28773;DHT22;15925;51.222;5.678;2023-02-15T06:05:07;1.40;99.90
28773;DHT22;15925;51.222;5.678;2023-02-15T06:07:33;1.40;99.90
28773;DHT22;15925;51.222;5.678;2023-02-15T06:09:58;1.40;99.90
28773;DHT22;15925;51.222;5.678;2023-02-15T06:12:24;1.40;99.90
28773;DHT22;15925;51.222;5.678;2023-02-15T06:14:50;1.40;99.90
28773;DHT22;15925;51.222;5.678;2023-02-15T06:17:15;1.40;99.90
28773;DHT22;15925;51.222;5.678;2023-02-15T06:19:42;1.40;99.90
28773;DHT22;15925;51.222;5.678;2023-02-15T06:22:08;1.40;99.90
28773;DHT22;15925;51.222;5.678;2023-02-15T06:24:33;1.40;99.90
28773;DHT22;15925;51.222;5.678;2023-02-15T06:26:59;1.40;99.90
28773;DHT22;15925;51.222;5.678;2023-02-15T06:29:25;1.30;99.90
28773;DHT22;15925;51.222;5.678;2023-02-15T06:31:50;1.30;99.90
28773;DHT22;15925;51.222;5.678;2023-02-15T06:34:16;1.20;99.90
28773;DHT22;15925;51.222;5.678;2023-02-15T06:36:42;1.20;99.90
28773;DHT22;15925;51.222;5.678;2023-02-15T06:39:07;1.30;99.90
28773;DHT22;15925;51.222;5.678;2023-02-15T06:41:33;1.30;99.90
28773;DHT22;15925;51.222;5.678;2023-02-15T06:43:59;1.20;99.90
28773;DHT22;15925;51.222;5.678;2023-02-15T06:46:25;1.20;99.90
28773;DHT22;15925;51.222;5.678;2023-02-15T06:48:51;1.10;99.90
28773;DHT22;15925;51.222;5.678;2023-02-15T06:51:17;1.10;99.90
28773;DHT22;15925;51.222;5.678;2023-02-15T06:53:42;1.10;99.90
28773;DHT22;15925;51.222;5.678;2023-02-15T06:56:09;1.10;99.90
28773;DHT22;15925;51.222;5.678;2023-02-15T06:58:35;1.10;99.90
28773;DHT22;15925;51.222;5.678;2023-02-15T07:01:01;1.00;99.90
28773;DHT22;15925;51.222;5.678;2023-02-15T07:03:27;1.10;99.90
28773;DHT22;15925;51.222;5.678;2023-02-15T07:05:56;1.10;99.90
28773;DHT22;15925;51.222;5.678;2023-02-15T07:08:23;1.10;99.90
28773;DHT22;15925;51.222;5.678;2023-02-15T07:10:49;1.00;99.90
28773;DHT22;15925;51.222;5.678;2023-02-15T07:13:14;1.10;99.90
28773;DHT22;15925;51.222;5.678;2023-02-15T07:15:40;1.00;99.90
28773;DHT22;15925;51.222;5.678;2023-02-15T07:18:06;1.00;99.90
28773;DHT22;15925;51.222;5.678;2023-02-15T07:20:31;1.00;99.90
28773;DHT22;15925;51.222;5.678;2023-02-15T07:22:59;1.10;99.90
28773;DHT22;15925;51.222;5.678;2023-02-15T07:25:25;1.20;99.90
28773;DHT22;15925;51.222;5.678;2023-02-15T07:27:57;1.10;99.90
28773;DHT22;15925;51.222;5.678;2023-02-15T07:30:23;1.20;99.90
28773;DHT22;15925;51.222;5.678;2023-02-15T07:32:49;1.20;99.90
28773;DHT22;15925;51.222;5.678;2023-02-15T07:35:33;1.30;99.90
28773;DHT22;15925;51.222;5.678;2023-02-15T07:37:59;1.30;99.90
28773;DHT22;15925;51.222;5.678;2023-02-15T07:40:25;1.30;99.90
28773;DHT22;15925;51.222;5.678;2023-02-15T07:42:51;1.30;99.90
28773;DHT22;15925;51.222;5.678;2023-02-15T07:45:18;1.30;99.90
28773;DHT22;15925;51.222;5.678;2023-02-15T07:47:44;1.40;99.90
28773;DHT22;15925;51.222;5.678;2023-02-15T07:50:10;1.40;99.90
28773;DHT22;15925;51.222;5.678;2023-02-15T07:52:35;1.50;99.90
28773;DHT22;15925;51.222;5.678;2023-02-15T07:55:01;1.50;99.90
28773;DHT22;15925;51.222;5.678;2023-02-15T07:57:27;1.50;99.90
28773;DHT22;15925;51.222;5.678;2023-02-15T07:59:53;1.50;99.90
28773;DHT22;15925;51.222;5.678;2023-02-15T08:02:19;1.50;99.90
28773;DHT22;15925;51.222;5.678;2023-02-15T08:04:44;1.50;99.90
28773;DHT22;15925;51.222;5.678;2023-02-15T08:07:10;1.40;99.90
28773;DHT22;15925;51.222;5.678;2023-02-15T08:09:36;1.50;99.90
28773;DHT22;15925;51.222;5.678;2023-02-15T08:12:02;1.60;99.90
28773;DHT22;15925;51.222;5.678;2023-02-15T08:14:30;1.60;99.90
28773;DHT22;15925;51.222;5.678;2023-02-15T08:16:59;1.60;99.90
28773;DHT22;15925;51.222;5.678;2023-02-15T08:19:26;1.60;99.90
28773;DHT22;15925;51.222;5.678;2023-02-15T08:21:52;1.50;99.90
28773;DHT22;15925;51.222;5.678;2023-02-15T08:24:19;1.50;99.90
28773;DHT22;15925;51.222;5.678;2023-02-15T08:26:45;1.60;99.90
28773;DHT22;15925;51.222;5.678;2023-02-15T08:29:13;1.60;99.90
28773;DHT22;15925;51.222;5.678;2023-02-15T08:31:39;1.70;99.90
28773;DHT22;15925;51.222;5.678;2023-02-15T08:34:07;1.70;99.90
28773;DHT22;15925;51.222;5.678;2023-02-15T08:36:33;1.80;99.90
28773;DHT22;15925;51.222;5.678;2023-02-15T08:38:59;1.80;99.90
28773;DHT22;15925;51.222;5.678;2023-02-15T08:41:27;1.80;99.90
28773;DHT22;15925;51.222;5.678;2023-02-15T08:43:53;1.90;99.90
28773;DHT22;15925;51.222;5.678;2023-02-15T08:46:20;1.90;99.90
28773;DHT22;15925;51.222;5.678;2023-02-15T08:48:45;2.00;99.90
28773;DHT22;15925;51.222;5.678;2023-02-15T08:51:21;2.10;99.90
28773;DHT22;15925;51.222;5.678;2023-02-15T08:53:47;2.10;99.90
28773;DHT22;15925;51.222;5.678;2023-02-15T08:56:17;2.20;99.90
28773;DHT22;15925;51.222;5.678;2023-02-15T08:58:43;2.30;99.90
28773;DHT22;15925;51.222;5.678;2023-02-15T09:01:20;2.30;99.90
28773;DHT22;15925;51.222;5.678;2023-02-15T09:03:47;2.40;99.90
28773;DHT22;15925;51.222;5.678;2023-02-15T09:06:13;2.40;99.90
28773;DHT22;15925;51.222;5.678;2023-02-15T09:08:39;2.50;99.90
28773;DHT22;15925;51.222;5.678;2023-02-15T09:11:14;2.60;99.90
28773;DHT22;15925;51.222;5.678;2023-02-15T09:13:58;2.70;99.90
28773;DHT22;15925;51.222;5.678;2023-02-15T09:16:25;2.80;99.90
28773;DHT22;15925;51.222;5.678;2023-02-15T09:18:52;2.90;99.90
28773;DHT22;15925;51.222;5.678;2023-02-15T09:21:18;3.00;99.90
28773;DHT22;15925;51.222;5.678;2023-02-15T09:23:46;3.10;99.90
28773;DHT22;15925;51.222;5.678;2023-02-15T09:26:13;3.20;99.90
28773;DHT22;15925;51.222;5.678;2023-02-15T09:28:39;3.30;99.90
28773;DHT22;15925;51.222;5.678;2023-02-15T09:33:32;3.50;99.90
28773;DHT22;15925;51.222;5.678;2023-02-15T09:35:58;3.60;99.90
28773;DHT22;15925;51.222;5.678;2023-02-15T09:38:23;3.70;99.90
28773;DHT22;15925;51.222;5.678;2023-02-15T09:40:52;3.80;99.90
28773;DHT22;15925;51.222;5.678;2023-02-15T09:43:23;3.90;99.90
28773;DHT22;15925;51.222;5.678;2023-02-15T09:48:30;4.20;99.90
28773;DHT22;15925;51.222;5.678;2023-02-15T10:13:29;5.50;99.90
28773;DHT22;15925;51.222;5.678;2023-02-15T10:16:24;5.60;99.90
28773;DHT22;15925;51.222;5.678;2023-02-15T10:26:18;6.10;99.90
28773;DHT22;15925;51.222;5.678;2023-02-15T10:28:55;6.20;99.90
28773;DHT22;15925;51.222;5.678;2023-02-15T10:31:23;6.40;99.90
28773;DHT22;15925;51.222;5.678;2023-02-15T10:39:20;6.80;99.90
28773;DHT22;15925;51.222;5.678;2023-02-15T10:42:05;6.90;99.90
28773;DHT22;15925;51.222;5.678;2023-02-15T10:47:22;7.20;99.90
28773;DHT22;15925;51.222;5.678;2023-02-15T10:49:58;7.30;99.90
28773;DHT22;15925;51.222;5.678;2023-02-15T10:52:46;7.40;99.90
28773;DHT22;15925;51.222;5.678;2023-02-15T11:00:13;7.90;99.90
28773;DHT22;15925;51.222;5.678;2023-02-15T11:07:45;8.30;99.90
28773;DHT22;15925;51.222;5.678;2023-02-15T11:12:53;8.60;99.90
28773;DHT22;15925;51.222;5.678;2023-02-15T11:15:29;8.70;99.90
28773;DHT22;15925;51.222;5.678;2023-02-15T11:18:00;8.80;99.90
28773;DHT22;15925;51.222;5.678;2023-02-15T11:22:53;9.10;99.90
28773;DHT22;15925;51.222;5.678;2023-02-15T11:25:53;9.20;99.90
28773;DHT22;15925;51.222;5.678;2023-02-15T11:28:17;9.40;99.90
28773;DHT22;15925;51.222;5.678;2023-02-15T11:30:45;9.50;99.90
28773;DHT22;15925;51.222;5.678;2023-02-15T11:33:18;9.60;99.90
28773;DHT22;15925;51.222;5.678;2023-02-15T11:35:52;9.80;99.90
28773;DHT22;15925;51.222;5.678;2023-02-15T11:38:20;10.00;99.90
28773;DHT22;15925;51.222;5.678;2023-02-15T11:40:48;10.10;99.90
28773;DHT22;15925;51.222;5.678;2023-02-15T11:43:16;10.20;99.90
28773;DHT22;15925;51.222;5.678;2023-02-15T11:45:45;10.30;99.90
28773;DHT22;15925;51.222;5.678;2023-02-15T11:48:12;10.40;99.90
28773;DHT22;15925;51.222;5.678;2023-02-15T11:50:38;10.60;99.90
28773;DHT22;15925;51.222;5.678;2023-02-15T11:53:04;10.70;99.90
28773;DHT22;15925;51.222;5.678;2023-02-15T11:55:31;10.80;99.90
28773;DHT22;15925;51.222;5.678;2023-02-15T11:58:16;11.00;99.90
28773;DHT22;15925;51.222;5.678;2023-02-15T12:00:46;11.10;99.90
28773;DHT22;15925;51.222;5.678;2023-02-15T12:03:14;11.20;99.90
28773;DHT22;15925;51.222;5.678;2023-02-15T12:05:42;11.30;99.90
28773;DHT22;15925;51.222;5.678;2023-02-15T12:08:16;11.50;99.90
28773;DHT22;15925;51.222;5.678;2023-02-15T12:10:57;11.60;99.90
28773;DHT22;15925;51.222;5.678;2023-02-15T12:13:23;11.60;99.90
28773;DHT22;15925;51.222;5.678;2023-02-15T12:15:53;11.80;99.90
28773;DHT22;15925;51.222;5.678;2023-02-15T12:20:45;12.00;99.90
28773;DHT22;15925;51.222;5.678;2023-02-15T12:23:12;12.10;99.90
28773;DHT22;15925;51.222;5.678;2023-02-15T12:25:42;12.20;99.90
28773;DHT22;15925;51.222;5.678;2023-02-15T12:28:23;12.20;99.90
28773;DHT22;15925;51.222;5.678;2023-02-15T12:30:50;12.30;99.90
28773;DHT22;15925;51.222;5.678;2023-02-15T12:33:29;12.40;99.90
28773;DHT22;15925;51.222;5.678;2023-02-15T12:36:42;12.50;99.90
28773;DHT22;15925;51.222;5.678;2023-02-15T12:38:41;12.50;99.90
28773;DHT22;15925;51.222;5.678;2023-02-15T12:41:23;12.50;99.90
28773;DHT22;15925;51.222;5.678;2023-02-15T12:46:57;12.70;99.90
28773;DHT22;15925;51.222;5.678;2023-02-15T12:49:23;12.80;99.90
28773;DHT22;15925;51.222;5.678;2023-02-15T12:51:53;12.80;99.90
28773;DHT22;15925;51.222;5.678;2023-02-15T12:56:48;13.10;99.90
28773;DHT22;15925;51.222;5.678;2023-02-15T12:59:14;13.10;99.90
28773;DHT22;15925;51.222;5.678;2023-02-15T13:01:41;13.10;99.90
28773;DHT22;15925;51.222;5.678;2023-02-15T13:06:49;13.30;99.90
28773;DHT22;15925;51.222;5.678;2023-02-15T13:09:16;13.40;99.90
28773;DHT22;15925;51.222;5.678;2023-02-15T13:11:43;13.40;99.90
28773;DHT22;15925;51.222;5.678;2023-02-15T13:14:16;13.50;99.90
28773;DHT22;15925;51.222;5.678;2023-02-15T13:16:43;13.60;99.90
28773;DHT22;15925;51.222;5.678;2023-02-15T13:19:14;13.70;99.90
28773;DHT22;15925;51.222;5.678;2023-02-15T13:21:41;13.70;99.90
28773;DHT22;15925;51.222;5.678;2023-02-15T13:24:27;13.80;99.90
28773;DHT22;15925;51.222;5.678;2023-02-15T13:26:54;13.80;99.90
28773;DHT22;15925;51.222;5.678;2023-02-15T13:29:22;13.80;99.90
28773;DHT22;15925;51.222;5.678;2023-02-15T13:31:49;13.70;99.90
28773;DHT22;15925;51.222;5.678;2023-02-15T13:34:16;13.70;99.90
28773;DHT22;15925;51.222;5.678;2023-02-15T13:39:40;13.60;99.90
28773;DHT22;15925;51.222;5.678;2023-02-15T13:52:21;13.80;99.90
28773;DHT22;15925;51.222;5.678;2023-02-15T14:02:36;13.70;99.90
28773;DHT22;15925;51.222;5.678;2023-02-15T14:13:05;13.70;99.90
28773;DHT22;15925;51.222;5.678;2023-02-15T14:31:04;13.60;99.90
28773;DHT22;15925;51.222;5.678;2023-02-15T14:33:40;13.50;99.90
28773;DHT22;15925;51.222;5.678;2023-02-15T14:36:08;13.50;99.90
28773;DHT22;15925;51.222;5.678;2023-02-15T14:51:59;13.20;99.90
28773;DHT22;15925;51.222;5.678;2023-02-15T14:53:58;13.20;99.90
28773;DHT22;15925;51.222;5.678;2023-02-15T14:56:25;13.20;99.90
28773;DHT22;15925;51.222;5.678;2023-02-15T15:03:55;13.20;99.90
28773;DHT22;15925;51.222;5.678;2023-02-15T15:06:26;13.10;99.90
28773;DHT22;15925;51.222;5.678;2023-02-15T15:08:54;13.00;99.90
28773;DHT22;15925;51.222;5.678;2023-02-15T15:13:59;13.00;99.90
28773;DHT22;15925;51.222;5.678;2023-02-15T15:16:46;12.90;99.90
28773;DHT22;15925;51.222;5.678;2023-02-15T15:19:12;12.90;99.90
28773;DHT22;15925;51.222;5.678;2023-02-15T15:22:02;12.80;99.90
28773;DHT22;15925;51.222;5.678;2023-02-15T15:29:48;12.60;99.90
28773;DHT22;15925;51.222;5.678;2023-02-15T15:32:13;12.50;99.90
28773;DHT22;15925;51.222;5.678;2023-02-15T15:50:14;12.20;99.90
28773;DHT22;15925;51.222;5.678;2023-02-15T15:52:41;12.10;99.90
28773;DHT22;15925;51.222;5.678;2023-02-15T15:55:14;12.10;99.90
28773;DHT22;15925;51.222;5.678;2023-02-15T15:57:41;12.10;99.90
28773;DHT22;15925;51.222;5.678;2023-02-15T16:00:30;12.10;99.90
28773;DHT22;15925;51.222;5.678;2023-02-15T16:02:58;12.00;99.90
28773;DHT22;15925;51.222;5.678;2023-02-15T16:05:24;12.00;99.90
28773;DHT22;15925;51.222;5.678;2023-02-15T16:07:49;11.90;99.90
28773;DHT22;15925;51.222;5.678;2023-02-15T16:10:28;11.80;99.90
28773;DHT22;15925;51.222;5.678;2023-02-15T16:12:54;11.70;99.90
28773;DHT22;15925;51.222;5.678;2023-02-15T16:15:22;11.60;99.90
28773;DHT22;15925;51.222;5.678;2023-02-15T16:17:50;11.60;99.90
28773;DHT22;15925;51.222;5.678;2023-02-15T16:20:30;11.50;99.90
28773;DHT22;15925;51.222;5.678;2023-02-15T16:28:13;11.40;99.90
28773;DHT22;15925;51.222;5.678;2023-02-15T16:30:39;11.40;99.90
28773;DHT22;15925;51.222;5.678;2023-02-15T16:33:15;11.30;99.90
28773;DHT22;15925;51.222;5.678;2023-02-15T16:36:03;11.30;99.90
28773;DHT22;15925;51.222;5.678;2023-02-15T16:41:11;11.20;99.90
28773;DHT22;15925;51.222;5.678;2023-02-15T16:43:37;11.10;99.90
28773;DHT22;15925;51.222;5.678;2023-02-15T16:46:06;11.10;99.90
28773;DHT22;15925;51.222;5.678;2023-02-15T16:48:32;11.00;99.90
28773;DHT22;15925;51.222;5.678;2023-02-15T16:50:59;11.00;99.90
28773;DHT22;15925;51.222;5.678;2023-02-15T16:53:25;10.90;99.90
28773;DHT22;15925;51.222;5.678;2023-02-15T16:55:55;10.80;99.90
28773;DHT22;15925;51.222;5.678;2023-02-15T16:58:29;10.80;99.90
28773;DHT22;15925;51.222;5.678;2023-02-15T17:00:57;10.70;99.90
28773;DHT22;15925;51.222;5.678;2023-02-15T17:03:23;10.60;99.90
28773;DHT22;15925;51.222;5.678;2023-02-15T17:05:53;10.40;99.90
28773;DHT22;15925;51.222;5.678;2023-02-15T17:10:46;10.40;99.90
28773;DHT22;15925;51.222;5.678;2023-02-15T17:13:26;10.30;99.90
28773;DHT22;15925;51.222;5.678;2023-02-15T17:20:53;10.00;99.90
28773;DHT22;15925;51.222;5.678;2023-02-15T17:23:33;10.00;99.90
28773;DHT22;15925;51.222;5.678;2023-02-15T17:26:00;9.90;99.90
28773;DHT22;15925;51.222;5.678;2023-02-15T17:28:30;9.70;99.90
28773;DHT22;15925;51.222;5.678;2023-02-15T17:30:56;9.60;99.90
28773;DHT22;15925;51.222;5.678;2023-02-15T17:36:04;9.50;99.90
28773;DHT22;15925;51.222;5.678;2023-02-15T17:38:40;9.50;99.90
28773;DHT22;15925;51.222;5.678;2023-02-15T17:43:50;9.30;99.90
28773;DHT22;15925;51.222;5.678;2023-02-15T17:46:15;9.20;99.90
28773;DHT22;15925;51.222;5.678;2023-02-15T17:48:45;9.10;99.90
28773;DHT22;15925;51.222;5.678;2023-02-15T17:51:12;9.10;99.90
28773;DHT22;15925;51.222;5.678;2023-02-15T17:53:38;9.00;99.90
28773;DHT22;15925;51.222;5.678;2023-02-15T17:56:04;9.00;99.90
28773;DHT22;15925;51.222;5.678;2023-02-15T17:58:35;8.90;99.90
28773;DHT22;15925;51.222;5.678;2023-02-15T18:01:03;8.80;99.90
28773;DHT22;15925;51.222;5.678;2023-02-15T18:03:49;8.80;99.90
28773;DHT22;15925;51.222;5.678;2023-02-15T18:06:34;8.70;99.90
28773;DHT22;15925;51.222;5.678;2023-02-15T18:09:19;8.70;99.90
28773;DHT22;15925;51.222;5.678;2023-02-15T18:12:14;8.60;99.90
28773;DHT22;15925;51.222;5.678;2023-02-15T18:14:42;8.60;99.90
28773;DHT22;15925;51.222;5.678;2023-02-15T18:17:09;8.50;99.90
28773;DHT22;15925;51.222;5.678;2023-02-15T18:19:36;8.50;99.90
28773;DHT22;15925;51.222;5.678;2023-02-15T18:22:07;8.40;99.90
28773;DHT22;15925;51.222;5.678;2023-02-15T18:24:33;8.40;99.90
28773;DHT22;15925;51.222;5.678;2023-02-15T18:26:58;8.40;99.90
28773;DHT22;15925;51.222;5.678;2023-02-15T18:29:24;8.30;99.90
28773;DHT22;15925;51.222;5.678;2023-02-15T18:31:53;8.30;99.90
28773;DHT22;15925;51.222;5.678;2023-02-15T18:34:24;8.30;99.90
28773;DHT22;15925;51.222;5.678;2023-02-15T18:36:51;8.20;99.90
28773;DHT22;15925;51.222;5.678;2023-02-15T18:42:03;8.30;99.90
28773;DHT22;15925;51.222;5.678;2023-02-15T18:44:28;8.20;99.90
28773;DHT22;15925;51.222;5.678;2023-02-15T18:46:54;8.20;99.90
28773;DHT22;15925;51.222;5.678;2023-02-15T18:49:20;8.20;99.90
28773;DHT22;15925;51.222;5.678;2023-02-15T18:51:45;8.10;99.90
28773;DHT22;15925;51.222;5.678;2023-02-15T18:54:15;8.10;99.90
28773;DHT22;15925;51.222;5.678;2023-02-15T18:56:42;8.00;99.90
28773;DHT22;15925;51.222;5.678;2023-02-15T18:59:14;8.10;99.90
28773;DHT22;15925;51.222;5.678;2023-02-15T19:01:40;8.00;99.90
28773;DHT22;15925;51.222;5.678;2023-02-15T19:04:07;8.00;99.90
28773;DHT22;15925;51.222;5.678;2023-02-15T19:06:33;8.00;99.90
28773;DHT22;15925;51.222;5.678;2023-02-15T19:08:58;8.00;99.90
28773;DHT22;15925;51.222;5.678;2023-02-15T19:11:26;7.90;99.90
28773;DHT22;15925;51.222;5.678;2023-02-15T19:13:52;7.80;99.90
28773;DHT22;15925;51.222;5.678;2023-02-15T19:18:46;7.60;99.90
28773;DHT22;15925;51.222;5.678;2023-02-15T19:21:14;7.60;99.90